sensor_id;sensor_type;location;lat;lon;timestamp;P1;durP1;ratioP1;P2;durP2;ratioP2
5616;SDS011;2830;50.656;7.568;2022-11-25T00:01:26;17.95;;;5.20;;
5616;SDS011;2830;50.656;7.568;2022-11-25T00:03:54;17.77;;;5.68;;
5616;SDS011;2830;50.656;7.568;2022-11-25T00:08:49;13.98;;;4.93;;
5616;SDS011;2830;50.656;7.568;2022-11-25T00:11:17;17.30;;;4.65;;
5616;SDS011;2830;50.656;7.568;2022-11-25T00:13:44;15.13;;;3.65;;
5616;SDS011;2830;50.656;7.568;2022-11-25T00:16:12;14.32;;;4.10;;
5616;SDS011;2830;50.656;7.568;2022-11-25T00:18:42;13.13;;;4.00;;
5616;SDS011;2830;50.656;7.568;2022-11-25T00:21:11;14.95;;;4.70;;
5616;SDS011;2830;50.656;7.568;2022-11-25T00:23:39;13.82;;;4.32;;
5616;SDS011;2830;50.656;7.568;2022-11-25T00:26:10;13.18;;;4.10;;
5616;SDS011;2830;50.656;7.568;2022-11-25T00:28:38;12.35;;;3.80;;
5616;SDS011;2830;50.656;7.568;2022-11-25T00:31:09;12.73;;;3.85;;
5616;SDS011;2830;50.656;7.568;2022-11-25T00:33:37;14.45;;;4.20;;
5616;SDS011;2830;50.656;7.568;2022-11-25T00:36:05;13.88;;;4.00;;
5616;SDS011;2830;50.656;7.568;2022-11-25T00:38:32;15.10;;;4.40;;
5616;SDS011;2830;50.656;7.568;2022-11-25T00:40:59;13.00;;;4.10;;
5616;SDS011;2830;50.656;7.568;2022-11-25T00:43:45;21.73;;;5.10;;
5616;SDS011;2830;50.656;7.568;2022-11-25T00:46:31;12.95;;;3.67;;
5616;SDS011;2830;50.656;7.568;2022-11-25T00:48:58;10.63;;;3.70;;
5616;SDS011;2830;50.656;7.568;2022-11-25T00:51:25;16.20;;;4.20;;
5616;SDS011;2830;50.656;7.568;2022-11-25T00:53:52;14.98;;;3.88;;
5616;SDS011;2830;50.656;7.568;2022-11-25T00:56:24;15.63;;;3.58;;
5616;SDS011;2830;50.656;7.568;2022-11-25T00:58:51;14.05;;;3.72;;
5616;SDS011;2830;50.656;7.568;2022-11-25T01:01:19;11.60;;;3.33;;
5616;SDS011;2830;50.656;7.568;2022-11-25T01:03:50;13.40;;;4.13;;
5616;SDS011;2830;50.656;7.568;2022-11-25T01:06:17;13.77;;;3.40;;
5616;SDS011;2830;50.656;7.568;2022-11-25T01:08:44;17.30;;;3.50;;
5616;SDS011;2830;50.656;7.568;2022-11-25T01:11:13;23.58;;;5.32;;
5616;SDS011;2830;50.656;7.568;2022-11-25T01:13:40;15.00;;;3.40;;
5616;SDS011;2830;50.656;7.568;2022-11-25T01:16:09;11.15;;;3.35;;
5616;SDS011;2830;50.656;7.568;2022-11-25T01:18:36;13.25;;;3.53;;
5616;SDS011;2830;50.656;7.568;2022-11-25T01:21:08;18.20;;;3.58;;
5616;SDS011;2830;50.656;7.568;2022-11-25T01:23:35;12.40;;;3.30;;
5616;SDS011;2830;50.656;7.568;2022-11-25T01:26:03;13.90;;;3.63;;
5616;SDS011;2830;50.656;7.568;2022-11-25T01:28:30;17.98;;;4.15;;
5616;SDS011;2830;50.656;7.568;2022-11-25T01:30:59;19.60;;;3.45;;
5616;SDS011;2830;50.656;7.568;2022-11-25T01:33:28;14.05;;;3.80;;
5616;SDS011;2830;50.656;7.568;2022-11-25T01:36:04;15.88;;;3.53;;
5616;SDS011;2830;50.656;7.568;2022-11-25T01:38:31;15.50;;;3.95;;
5616;SDS011;2830;50.656;7.568;2022-11-25T01:40:59;17.70;;;4.03;;
5616;SDS011;2830;50.656;7.568;2022-11-25T01:43:26;14.18;;;3.53;;
5616;SDS011;2830;50.656;7.568;2022-11-25T01:45:54;17.15;;;4.00;;
5616;SDS011;2830;50.656;7.568;2022-11-25T01:48:36;19.80;;;4.18;;
5616;SDS011;2830;50.656;7.568;2022-11-25T01:51:04;20.70;;;4.82;;
5616;SDS011;2830;50.656;7.568;2022-11-25T01:53:32;23.25;;;5.07;;
5616;SDS011;2830;50.656;7.568;2022-11-25T01:56:00;21.00;;;4.80;;
5616;SDS011;2830;50.656;7.568;2022-11-25T01:58:30;13.60;;;3.92;;
5616;SDS011;2830;50.656;7.568;2022-11-25T02:00:58;19.77;;;4.75;;
5616;SDS011;2830;50.656;7.568;2022-11-25T02:03:30;16.20;;;4.20;;
5616;SDS011;2830;50.656;7.568;2022-11-25T02:06:05;16.88;;;4.07;;
5616;SDS011;2830;50.656;7.568;2022-11-25T02:08:33;17.80;;;3.88;;
5616;SDS011;2830;50.656;7.568;2022-11-25T02:11:01;23.13;;;4.00;;
5616;SDS011;2830;50.656;7.568;2022-11-25T02:13:30;17.05;;;4.32;;
5616;SDS011;2830;50.656;7.568;2022-11-25T02:15:57;19.73;;;3.70;;
5616;SDS011;2830;50.656;7.568;2022-11-25T02:18:25;18.30;;;3.95;;
5616;SDS011;2830;50.656;7.568;2022-11-25T02:20:52;18.40;;;3.55;;
5616;SDS011;2830;50.656;7.568;2022-11-25T02:25:51;15.32;;;3.95;;
5616;SDS011;2830;50.656;7.568;2022-11-25T02:28:20;13.93;;;3.55;;
5616;SDS011;2830;50.656;7.568;2022-11-25T02:30:48;16.45;;;3.65;;
5616;SDS011;2830;50.656;7.568;2022-11-25T02:33:15;22.70;;;4.43;;
5616;SDS011;2830;50.656;7.568;2022-11-25T02:35:46;15.88;;;3.70;;
5616;SDS011;2830;50.656;7.568;2022-11-25T02:38:15;13.82;;;3.25;;
5616;SDS011;2830;50.656;7.568;2022-11-25T02:40:54;16.85;;;4.15;;
5616;SDS011;2830;50.656;7.568;2022-11-25T02:43:24;18.83;;;3.28;;
5616;SDS011;2830;50.656;7.568;2022-11-25T02:48:20;13.15;;;3.65;;
5616;SDS011;2830;50.656;7.568;2022-11-25T02:51:05;17.55;;;3.38;;
5616;SDS011;2830;50.656;7.568;2022-11-25T02:53:33;11.93;;;3.50;;
5616;SDS011;2830;50.656;7.568;2022-11-25T02:56:00;15.20;;;3.75;;
5616;SDS011;2830;50.656;7.568;2022-11-25T02:58:27;16.10;;;3.72;;
5616;SDS011;2830;50.656;7.568;2022-11-25T03:00:54;12.43;;;3.00;;
5616;SDS011;2830;50.656;7.568;2022-11-25T03:03:21;19.38;;;4.60;;
5616;SDS011;2830;50.656;7.568;2022-11-25T03:05:48;18.40;;;3.58;;
5616;SDS011;2830;50.656;7.568;2022-11-25T03:08:15;16.45;;;3.55;;
5616;SDS011;2830;50.656;7.568;2022-11-25T03:10:42;12.88;;;3.55;;
5616;SDS011;2830;50.656;7.568;2022-11-25T03:13:09;13.40;;;3.40;;
5616;SDS011;2830;50.656;7.568;2022-11-25T03:15:36;15.80;;;3.08;;
5616;SDS011;2830;50.656;7.568;2022-11-25T03:18:03;13.50;;;3.40;;
5616;SDS011;2830;50.656;7.568;2022-11-25T03:20:31;13.77;;;3.10;;
5616;SDS011;2830;50.656;7.568;2022-11-25T03:22:58;14.43;;;3.67;;
5616;SDS011;2830;50.656;7.568;2022-11-25T03:25:25;11.88;;;2.60;;
5616;SDS011;2830;50.656;7.568;2022-11-25T03:27:52;15.70;;;3.85;;
5616;SDS011;2830;50.656;7.568;2022-11-25T03:30:20;15.93;;;3.83;;
5616;SDS011;2830;50.656;7.568;2022-11-25T03:32:48;15.13;;;3.30;;
5616;SDS011;2830;50.656;7.568;2022-11-25T03:35:15;13.10;;;3.35;;
5616;SDS011;2830;50.656;7.568;2022-11-25T03:37:42;19.60;;;3.30;;
5616;SDS011;2830;50.656;7.568;2022-11-25T03:40:10;15.48;;;3.38;;
5616;SDS011;2830;50.656;7.568;2022-11-25T03:42:38;17.23;;;3.40;;
5616;SDS011;2830;50.656;7.568;2022-11-25T03:45:05;19.08;;;3.80;;
5616;SDS011;2830;50.656;7.568;2022-11-25T03:47:32;16.08;;;3.38;;
5616;SDS011;2830;50.656;7.568;2022-11-25T03:49:59;12.63;;;3.10;;
5616;SDS011;2830;50.656;7.568;2022-11-25T03:52:29;15.75;;;3.42;;
5616;SDS011;2830;50.656;7.568;2022-11-25T03:54:57;20.27;;;3.50;;
5616;SDS011;2830;50.656;7.568;2022-11-25T03:57:23;12.80;;;3.28;;
5616;SDS011;2830;50.656;7.568;2022-11-25T03:59:51;19.73;;;3.97;;
5616;SDS011;2830;50.656;7.568;2022-11-25T04:02:18;16.92;;;3.80;;
5616;SDS011;2830;50.656;7.568;2022-11-25T04:04:45;13.15;;;3.20;;
5616;SDS011;2830;50.656;7.568;2022-11-25T04:07:12;12.70;;;3.42;;
5616;SDS011;2830;50.656;7.568;2022-11-25T04:09:39;13.30;;;3.40;;
5616;SDS011;2830;50.656;7.568;2022-11-25T04:12:06;19.23;;;3.20;;
5616;SDS011;2830;50.656;7.568;2022-11-25T04:14:52;20.15;;;4.25;;
5616;SDS011;2830;50.656;7.568;2022-11-25T04:17:19;15.57;;;4.70;;
5616;SDS011;2830;50.656;7.568;2022-11-25T04:19:46;24.45;;;4.63;;
5616;SDS011;2830;50.656;7.568;2022-11-25T04:22:13;16.65;;;4.20;;
5616;SDS011;2830;50.656;7.568;2022-11-25T04:24:40;22.15;;;4.70;;
5616;SDS011;2830;50.656;7.568;2022-11-25T04:27:07;18.77;;;4.15;;
5616;SDS011;2830;50.656;7.568;2022-11-25T04:29:36;14.93;;;3.67;;
5616;SDS011;2830;50.656;7.568;2022-11-25T04:32:03;17.88;;;3.70;;
5616;SDS011;2830;50.656;7.568;2022-11-25T04:34:30;18.02;;;4.43;;
5616;SDS011;2830;50.656;7.568;2022-11-25T04:36:56;20.75;;;4.70;;
5616;SDS011;2830;50.656;7.568;2022-11-25T04:39:23;20.10;;;4.50;;
5616;SDS011;2830;50.656;7.568;2022-11-25T04:41:49;19.20;;;5.10;;
5616;SDS011;2830;50.656;7.568;2022-11-25T04:44:36;21.33;;;4.07;;
5616;SDS011;2830;50.656;7.568;2022-11-25T04:47:03;18.30;;;4.15;;
5616;SDS011;2830;50.656;7.568;2022-11-25T04:49:30;16.92;;;3.50;;
5616;SDS011;2830;50.656;7.568;2022-11-25T04:51:56;23.83;;;4.55;;
5616;SDS011;2830;50.656;7.568;2022-11-25T04:54:23;20.58;;;4.45;;
5616;SDS011;2830;50.656;7.568;2022-11-25T04:56:50;25.02;;;4.88;;
5616;SDS011;2830;50.656;7.568;2022-11-25T04:59:16;21.58;;;4.63;;
5616;SDS011;2830;50.656;7.568;2022-11-25T05:02:02;21.13;;;4.70;;
5616;SDS011;2830;50.656;7.568;2022-11-25T05:04:28;26.20;;;5.03;;
5616;SDS011;2830;50.656;7.568;2022-11-25T05:06:55;19.17;;;4.32;;
5616;SDS011;2830;50.656;7.568;2022-11-25T05:09:22;19.15;;;4.60;;
5616;SDS011;2830;50.656;7.568;2022-11-25T05:11:48;22.17;;;5.10;;
5616;SDS011;2830;50.656;7.568;2022-11-25T05:14:15;19.92;;;5.18;;
5616;SDS011;2830;50.656;7.568;2022-11-25T05:16:42;22.65;;;5.45;;
5616;SDS011;2830;50.656;7.568;2022-11-25T05:19:08;22.60;;;4.80;;
5616;SDS011;2830;50.656;7.568;2022-11-25T05:21:35;19.60;;;3.88;;
5616;SDS011;2830;50.656;7.568;2022-11-25T05:24:03;21.80;;;4.30;;
5616;SDS011;2830;50.656;7.568;2022-11-25T05:26:30;16.67;;;4.10;;
5616;SDS011;2830;50.656;7.568;2022-11-25T05:28:56;17.80;;;4.35;;
5616;SDS011;2830;50.656;7.568;2022-11-25T05:31:23;19.73;;;4.72;;
5616;SDS011;2830;50.656;7.568;2022-11-25T05:33:50;19.90;;;5.07;;
5616;SDS011;2830;50.656;7.568;2022-11-25T05:36:16;18.15;;;4.10;;
5616;SDS011;2830;50.656;7.568;2022-11-25T05:38:43;17.02;;;4.25;;
5616;SDS011;2830;50.656;7.568;2022-11-25T05:41:10;20.42;;;3.58;;
5616;SDS011;2830;50.656;7.568;2022-11-25T05:43:37;27.75;;;4.80;;
5616;SDS011;2830;50.656;7.568;2022-11-25T05:46:04;15.75;;;3.67;;
5616;SDS011;2830;50.656;7.568;2022-11-25T05:48:35;15.40;;;3.80;;
5616;SDS011;2830;50.656;7.568;2022-11-25T05:51:02;17.48;;;4.43;;
5616;SDS011;2830;50.656;7.568;2022-11-25T05:53:29;18.40;;;3.90;;
5616;SDS011;2830;50.656;7.568;2022-11-25T05:55:57;20.50;;;4.00;;
5616;SDS011;2830;50.656;7.568;2022-11-25T05:58:25;21.25;;;4.30;;
5616;SDS011;2830;50.656;7.568;2022-11-25T06:00:53;17.08;;;4.90;;
5616;SDS011;2830;50.656;7.568;2022-11-25T06:03:27;16.67;;;3.90;;
5616;SDS011;2830;50.656;7.568;2022-11-25T06:05:55;22.13;;;4.13;;
5616;SDS011;2830;50.656;7.568;2022-11-25T06:08:22;22.58;;;3.55;;
5616;SDS011;2830;50.656;7.568;2022-11-25T06:10:50;21.00;;;4.70;;
5616;SDS011;2830;50.656;7.568;2022-11-25T06:13:16;17.50;;;4.10;;
5616;SDS011;2830;50.656;7.568;2022-11-25T06:15:44;20.92;;;4.40;;
5616;SDS011;2830;50.656;7.568;2022-11-25T06:18:11;22.40;;;4.20;;
5616;SDS011;2830;50.656;7.568;2022-11-25T06:20:41;16.45;;;2.92;;
5616;SDS011;2830;50.656;7.568;2022-11-25T06:23:08;13.15;;;3.30;;
5616;SDS011;2830;50.656;7.568;2022-11-25T06:25:35;21.30;;;3.97;;
5616;SDS011;2830;50.656;7.568;2022-11-25T06:28:02;22.50;;;3.83;;
5616;SDS011;2830;50.656;7.568;2022-11-25T06:30:38;17.23;;;4.10;;
5616;SDS011;2830;50.656;7.568;2022-11-25T06:33:05;19.65;;;3.33;;
5616;SDS011;2830;50.656;7.568;2022-11-25T06:35:32;14.90;;;2.88;;
5616;SDS011;2830;50.656;7.568;2022-11-25T06:37:58;20.13;;;4.60;;
5616;SDS011;2830;50.656;7.568;2022-11-25T06:40:25;22.60;;;4.55;;
5616;SDS011;2830;50.656;7.568;2022-11-25T06:42:52;19.67;;;3.97;;
5616;SDS011;2830;50.656;7.568;2022-11-25T06:45:19;22.45;;;3.35;;
5616;SDS011;2830;50.656;7.568;2022-11-25T06:47:45;24.08;;;3.95;;
5616;SDS011;2830;50.656;7.568;2022-11-25T06:50:12;17.60;;;3.35;;
5616;SDS011;2830;50.656;7.568;2022-11-25T06:52:39;15.95;;;3.28;;
5616;SDS011;2830;50.656;7.568;2022-11-25T06:55:05;16.95;;;3.40;;
5616;SDS011;2830;50.656;7.568;2022-11-25T06:57:32;20.40;;;4.55;;
5616;SDS011;2830;50.656;7.568;2022-11-25T06:59:59;15.53;;;3.33;;
5616;SDS011;2830;50.656;7.568;2022-11-25T07:02:25;21.73;;;3.75;;
5616;SDS011;2830;50.656;7.568;2022-11-25T07:04:52;18.10;;;3.70;;
5616;SDS011;2830;50.656;7.568;2022-11-25T07:07:19;15.15;;;3.05;;
5616;SDS011;2830;50.656;7.568;2022-11-25T07:09:46;15.48;;;3.85;;
5616;SDS011;2830;50.656;7.568;2022-11-25T07:12:13;20.90;;;4.20;;
5616;SDS011;2830;50.656;7.568;2022-11-25T07:14:39;19.42;;;3.67;;
5616;SDS011;2830;50.656;7.568;2022-11-25T07:17:06;13.85;;;2.92;;
5616;SDS011;2830;50.656;7.568;2022-11-25T07:19:37;13.50;;;3.53;;
5616;SDS011;2830;50.656;7.568;2022-11-25T07:22:04;20.35;;;3.33;;
5616;SDS011;2830;50.656;7.568;2022-11-25T07:24:30;16.00;;;3.63;;
5616;SDS011;2830;50.656;7.568;2022-11-25T07:26:59;17.08;;;3.30;;
5616;SDS011;2830;50.656;7.568;2022-11-25T07:29:25;14.98;;;3.35;;
5616;SDS011;2830;50.656;7.568;2022-11-25T07:32:12;20.20;;;3.80;;
5616;SDS011;2830;50.656;7.568;2022-11-25T07:34:39;21.70;;;6.05;;
5616;SDS011;2830;50.656;7.568;2022-11-25T07:37:06;19.17;;;4.00;;
5616;SDS011;2830;50.656;7.568;2022-11-25T07:39:33;16.65;;;3.75;;
5616;SDS011;2830;50.656;7.568;2022-11-25T07:42:00;16.50;;;3.72;;
5616;SDS011;2830;50.656;7.568;2022-11-25T07:44:27;27.30;;;4.10;;
5616;SDS011;2830;50.656;7.568;2022-11-25T07:46:53;15.60;;;3.35;;
5616;SDS011;2830;50.656;7.568;2022-11-25T07:49:21;14.77;;;4.43;;
5616;SDS011;2830;50.656;7.568;2022-11-25T07:51:51;22.00;;;4.43;;
5616;SDS011;2830;50.656;7.568;2022-11-25T07:54:19;23.23;;;3.78;;
5616;SDS011;2830;50.656;7.568;2022-11-25T07:56:53;20.03;;;4.03;;
5616;SDS011;2830;50.656;7.568;2022-11-25T07:59:21;17.67;;;4.32;;
5616;SDS011;2830;50.656;7.568;2022-11-25T08:01:49;27.23;;;4.38;;
5616;SDS011;2830;50.656;7.568;2022-11-25T08:04:16;18.50;;;3.45;;
5616;SDS011;2830;50.656;7.568;2022-11-25T08:06:47;25.25;;;3.95;;
5616;SDS011;2830;50.656;7.568;2022-11-25T08:09:16;16.80;;;3.80;;
5616;SDS011;2830;50.656;7.568;2022-11-25T08:11:45;25.20;;;4.60;;
5616;SDS011;2830;50.656;7.568;2022-11-25T08:14:12;20.83;;;3.90;;
5616;SDS011;2830;50.656;7.568;2022-11-25T08:16:40;19.13;;;4.07;;
5616;SDS011;2830;50.656;7.568;2022-11-25T08:19:07;15.13;;;4.10;;
5616;SDS011;2830;50.656;7.568;2022-11-25T08:21:36;15.60;;;3.42;;
5616;SDS011;2830;50.656;7.568;2022-11-25T08:24:03;18.02;;;3.70;;
5616;SDS011;2830;50.656;7.568;2022-11-25T08:26:31;20.80;;;3.80;;
5616;SDS011;2830;50.656;7.568;2022-11-25T08:29:02;19.45;;;4.30;;
5616;SDS011;2830;50.656;7.568;2022-11-25T08:31:34;20.47;;;4.13;;
5616;SDS011;2830;50.656;7.568;2022-11-25T08:34:03;15.35;;;3.13;;
5616;SDS011;2830;50.656;7.568;2022-11-25T08:36:32;20.38;;;3.78;;
5616;SDS011;2830;50.656;7.568;2022-11-25T08:39:00;13.52;;;3.55;;
5616;SDS011;2830;50.656;7.568;2022-11-25T08:41:47;16.10;;;3.20;;
5616;SDS011;2830;50.656;7.568;2022-11-25T08:44:14;18.13;;;5.70;;
5616;SDS011;2830;50.656;7.568;2022-11-25T08:46:41;22.10;;;6.10;;
5616;SDS011;2830;50.656;7.568;2022-11-25T08:49:08;18.47;;;5.13;;
5616;SDS011;2830;50.656;7.568;2022-11-25T08:51:36;21.83;;;4.20;;
5616;SDS011;2830;50.656;7.568;2022-11-25T08:54:04;13.03;;;3.40;;
5616;SDS011;2830;50.656;7.568;2022-11-25T08:56:32;14.33;;;3.53;;
5616;SDS011;2830;50.656;7.568;2022-11-25T08:58:59;18.73;;;4.10;;
5616;SDS011;2830;50.656;7.568;2022-11-25T09:01:26;16.37;;;5.03;;
5616;SDS011;2830;50.656;7.568;2022-11-25T09:03:54;21.30;;;6.33;;
5616;SDS011;2830;50.656;7.568;2022-11-25T09:06:21;23.43;;;5.80;;
5616;SDS011;2830;50.656;7.568;2022-11-25T09:08:49;18.23;;;5.17;;
5616;SDS011;2830;50.656;7.568;2022-11-25T09:11:19;16.97;;;4.83;;
5616;SDS011;2830;50.656;7.568;2022-11-25T09:13:47;19.13;;;3.80;;
5616;SDS011;2830;50.656;7.568;2022-11-25T09:16:14;15.80;;;3.77;;
5616;SDS011;2830;50.656;7.568;2022-11-25T09:18:41;15.30;;;4.00;;
5616;SDS011;2830;50.656;7.568;2022-11-25T09:21:12;21.40;;;3.83;;
5616;SDS011;2830;50.656;7.568;2022-11-25T09:23:41;20.07;;;3.10;;
5616;SDS011;2830;50.656;7.568;2022-11-25T09:28:49;14.27;;;2.67;;
5616;SDS011;2830;50.656;7.568;2022-11-25T09:31:15;17.43;;;3.50;;
5616;SDS011;2830;50.656;7.568;2022-11-25T09:33:43;27.53;;;3.83;;
5616;SDS011;2830;50.656;7.568;2022-11-25T09:36:11;15.47;;;3.47;;
5616;SDS011;2830;50.656;7.568;2022-11-25T09:38:40;16.83;;;3.17;;
5616;SDS011;2830;50.656;7.568;2022-11-25T09:42:15;15.93;;;3.27;;
5616;SDS011;2830;50.656;7.568;2022-11-25T09:50:32;15.47;;;2.70;;
5616;SDS011;2830;50.656;7.568;2022-11-25T09:53:22;17.30;;;3.80;;
5616;SDS011;2830;50.656;7.568;2022-11-25T09:55:57;12.73;;;2.97;;
5616;SDS011;2830;50.656;7.568;2022-11-25T09:58:36;15.23;;;3.13;;
5616;SDS011;2830;50.656;7.568;2022-11-25T10:01:08;17.17;;;3.30;;
5616;SDS011;2830;50.656;7.568;2022-11-25T10:03:44;16.47;;;3.40;;
5616;SDS011;2830;50.656;7.568;2022-11-25T10:06:20;14.20;;;2.40;;
5616;SDS011;2830;50.656;7.568;2022-11-25T10:08:57;15.10;;;2.90;;
5616;SDS011;2830;50.656;7.568;2022-11-25T10:11:37;15.90;;;2.67;;
5616;SDS011;2830;50.656;7.568;2022-11-25T10:16:57;18.10;;;2.80;;
5616;SDS011;2830;50.656;7.568;2022-11-25T10:19:45;13.93;;;2.50;;
5616;SDS011;2830;50.656;7.568;2022-11-25T10:22:26;14.60;;;2.37;;
5616;SDS011;2830;50.656;7.568;2022-11-25T10:25:23;14.13;;;2.10;;
5616;SDS011;2830;50.656;7.568;2022-11-25T10:27:57;20.87;;;2.43;;
5616;SDS011;2830;50.656;7.568;2022-11-25T10:30:26;15.60;;;2.57;;
5616;SDS011;2830;50.656;7.568;2022-11-25T10:33:53;22.37;;;2.60;;
5616;SDS011;2830;50.656;7.568;2022-11-25T10:41:26;15.20;;;2.20;;
5616;SDS011;2830;50.656;7.568;2022-11-25T10:43:56;16.80;;;2.13;;
5616;SDS011;2830;50.656;7.568;2022-11-25T10:49:23;14.53;;;2.37;;
5616;SDS011;2830;50.656;7.568;2022-11-25T10:52:01;17.27;;;2.20;;
5616;SDS011;2830;50.656;7.568;2022-11-25T10:54:35;16.00;;;3.30;;
5616;SDS011;2830;50.656;7.568;2022-11-25T10:57:02;16.53;;;2.40;;
5616;SDS011;2830;50.656;7.568;2022-11-25T10:59:40;15.37;;;2.00;;
5616;SDS011;2830;50.656;7.568;2022-11-25T11:02:22;17.07;;;1.90;;
5616;SDS011;2830;50.656;7.568;2022-11-25T11:07:39;16.47;;;2.73;;
5616;SDS011;2830;50.656;7.568;2022-11-25T11:10:22;15.07;;;2.27;;
5616;SDS011;2830;50.656;7.568;2022-11-25T11:13:01;15.10;;;1.97;;
5616;SDS011;2830;50.656;7.568;2022-11-25T11:15:31;16.07;;;2.40;;
5616;SDS011;2830;50.656;7.568;2022-11-25T11:18:26;15.13;;;1.70;;
5616;SDS011;2830;50.656;7.568;2022-11-25T11:21:02;19.03;;;2.80;;
5616;SDS011;2830;50.656;7.568;2022-11-25T11:23:45;16.83;;;2.07;;
5616;SDS011;2830;50.656;7.568;2022-11-25T11:26:24;16.03;;;2.40;;
5616;SDS011;2830;50.656;7.568;2022-11-25T11:28:59;20.17;;;4.17;;
5616;SDS011;2830;50.656;7.568;2022-11-25T11:31:42;19.60;;;2.70;;
5616;SDS011;2830;50.656;7.568;2022-11-25T11:34:21;18.00;;;2.83;;
5616;SDS011;2830;50.656;7.568;2022-11-25T11:42:48;16.20;;;2.83;;
5616;SDS011;2830;50.656;7.568;2022-11-25T11:48:40;17.80;;;2.87;;
5616;SDS011;2830;50.656;7.568;2022-11-25T11:51:46;25.13;;;3.80;;
5616;SDS011;2830;50.656;7.568;2022-11-25T11:54:32;18.70;;;3.90;;
5616;SDS011;2830;50.656;7.568;2022-11-25T11:59:50;18.00;;;4.70;;
5616;SDS011;2830;50.656;7.568;2022-11-25T12:02:48;16.43;;;2.50;;
5616;SDS011;2830;50.656;7.568;2022-11-25T12:05:23;20.70;;;2.30;;
5616;SDS011;2830;50.656;7.568;2022-11-25T12:08:01;19.47;;;2.23;;
5616;SDS011;2830;50.656;7.568;2022-11-25T12:13:32;15.57;;;2.10;;
5616;SDS011;2830;50.656;7.568;2022-11-25T12:29:54;16.77;;;2.10;;
5616;SDS011;2830;50.656;7.568;2022-11-25T12:32:29;15.47;;;2.57;;
5616;SDS011;2830;50.656;7.568;2022-11-25T12:38:37;14.90;;;2.50;;
5616;SDS011;2830;50.656;7.568;2022-11-25T12:41:26;21.77;;;2.70;;
5616;SDS011;2830;50.656;7.568;2022-11-25T12:46:51;15.57;;;1.77;;
5616;SDS011;2830;50.656;7.568;2022-11-25T12:49:27;17.37;;;2.40;;
5616;SDS011;2830;50.656;7.568;2022-11-25T12:51:59;15.13;;;1.70;;
5616;SDS011;2830;50.656;7.568;2022-11-25T13:00:35;14.07;;;2.07;;
5616;SDS011;2830;50.656;7.568;2022-11-25T13:09:10;19.93;;;2.53;;
5616;SDS011;2830;50.656;7.568;2022-11-25T13:17:27;20.97;;;5.07;;
5616;SDS011;2830;50.656;7.568;2022-11-25T13:25:31;20.40;;;2.90;;
5616;SDS011;2830;50.656;7.568;2022-11-25T13:27:58;17.87;;;2.03;;
5616;SDS011;2830;50.656;7.568;2022-11-25T13:38:35;14.97;;;1.93;;
5616;SDS011;2830;50.656;7.568;2022-11-25T13:43:49;20.53;;;2.93;;
5616;SDS011;2830;50.656;7.568;2022-11-25T13:46:33;23.73;;;3.53;;
5616;SDS011;2830;50.656;7.568;2022-11-25T13:49:22;18.03;;;2.57;;
5616;SDS011;2830;50.656;7.568;2022-11-25T13:54:38;19.70;;;2.30;;
5616;SDS011;2830;50.656;7.568;2022-11-25T13:57:22;16.17;;;2.73;;
5616;SDS011;2830;50.656;7.568;2022-11-25T13:59:58;20.20;;;3.13;;
5616;SDS011;2830;50.656;7.568;2022-11-25T14:02:33;18.77;;;2.60;;
5616;SDS011;2830;50.656;7.568;2022-11-25T14:10:54;22.07;;;3.17;;
5616;SDS011;2830;50.656;7.568;2022-11-25T14:13:42;28.03;;;10.80;;
5616;SDS011;2830;50.656;7.568;2022-11-25T14:22:15;17.63;;;4.53;;
5616;SDS011;2830;50.656;7.568;2022-11-25T14:25:13;20.83;;;3.60;;
5616;SDS011;2830;50.656;7.568;2022-11-25T14:27:47;18.77;;;3.30;;
5616;SDS011;2830;50.656;7.568;2022-11-25T14:30:19;20.23;;;3.67;;
5616;SDS011;2830;50.656;7.568;2022-11-25T14:32:56;18.47;;;2.70;;
5616;SDS011;2830;50.656;7.568;2022-11-25T14:35:35;19.93;;;2.93;;
5616;SDS011;2830;50.656;7.568;2022-11-25T14:38:18;18.47;;;2.50;;
5616;SDS011;2830;50.656;7.568;2022-11-25T14:41:18;18.50;;;2.40;;
5616;SDS011;2830;50.656;7.568;2022-11-25T14:43:52;19.40;;;2.50;;
5616;SDS011;2830;50.656;7.568;2022-11-25T14:46:23;15.40;;;2.20;;
5616;SDS011;2830;50.656;7.568;2022-11-25T14:48:57;23.60;;;2.50;;
5616;SDS011;2830;50.656;7.568;2022-11-25T14:51:35;15.80;;;2.33;;
5616;SDS011;2830;50.656;7.568;2022-11-25T14:54:06;17.30;;;2.27;;
5616;SDS011;2830;50.656;7.568;2022-11-25T14:56:33;17.03;;;2.50;;
5616;SDS011;2830;50.656;7.568;2022-11-25T14:59:02;21.53;;;3.17;;
5616;SDS011;2830;50.656;7.568;2022-11-25T15:01:29;18.50;;;3.40;;
5616;SDS011;2830;50.656;7.568;2022-11-25T15:04:03;17.63;;;4.70;;
5616;SDS011;2830;50.656;7.568;2022-11-25T15:06:36;15.87;;;3.60;;
5616;SDS011;2830;50.656;7.568;2022-11-25T15:09:27;13.57;;;3.10;;
5616;SDS011;2830;50.656;7.568;2022-11-25T15:11:57;18.87;;;3.27;;
5616;SDS011;2830;50.656;7.568;2022-11-25T15:14:27;15.40;;;2.77;;
5616;SDS011;2830;50.656;7.568;2022-11-25T15:20:43;25.10;;;2.80;;
5616;SDS011;2830;50.656;7.568;2022-11-25T15:23:18;13.70;;;1.97;;
5616;SDS011;2830;50.656;7.568;2022-11-25T15:25:49;20.53;;;2.43;;
5616;SDS011;2830;50.656;7.568;2022-11-25T15:28:17;12.73;;;1.90;;
5616;SDS011;2830;50.656;7.568;2022-11-25T15:30:54;15.73;;;2.30;;
5616;SDS011;2830;50.656;7.568;2022-11-25T15:33:25;18.03;;;2.60;;
5616;SDS011;2830;50.656;7.568;2022-11-25T15:35:52;18.63;;;2.50;;
5616;SDS011;2830;50.656;7.568;2022-11-25T15:38:35;13.53;;;3.00;;
5616;SDS011;2830;50.656;7.568;2022-11-25T15:41:03;14.23;;;2.03;;
5616;SDS011;2830;50.656;7.568;2022-11-25T15:43:31;20.17;;;2.60;;
5616;SDS011;2830;50.656;7.568;2022-11-25T15:46:02;15.63;;;2.40;;
5616;SDS011;2830;50.656;7.568;2022-11-25T15:48:37;11.97;;;2.30;;
5616;SDS011;2830;50.656;7.568;2022-11-25T15:51:21;23.30;;;3.10;;
5616;SDS011;2830;50.656;7.568;2022-11-25T15:54:04;18.70;;;2.70;;
5616;SDS011;2830;50.656;7.568;2022-11-25T15:56:44;11.13;;;2.07;;
5616;SDS011;2830;50.656;7.568;2022-11-25T16:02:30;17.70;;;2.67;;
5616;SDS011;2830;50.656;7.568;2022-11-25T16:05:35;18.97;;;2.93;;
5616;SDS011;2830;50.656;7.568;2022-11-25T16:07:57;13.10;;;2.00;;
5616;SDS011;2830;50.656;7.568;2022-11-25T16:15:52;14.07;;;2.30;;
5616;SDS011;2830;50.656;7.568;2022-11-25T16:18:23;14.63;;;2.83;;
5616;SDS011;2830;50.656;7.568;2022-11-25T16:21:22;13.10;;;2.90;;
5616;SDS011;2830;50.656;7.568;2022-11-25T16:23:55;17.40;;;2.73;;
5616;SDS011;2830;50.656;7.568;2022-11-25T16:26:55;14.20;;;2.93;;
5616;SDS011;2830;50.656;7.568;2022-11-25T16:32:15;17.60;;;3.40;;
5616;SDS011;2830;50.656;7.568;2022-11-25T16:34:44;14.03;;;3.10;;
5616;SDS011;2830;50.656;7.568;2022-11-25T16:37:10;12.75;;;3.15;;
5616;SDS011;2830;50.656;7.568;2022-11-25T16:39:37;13.53;;;2.67;;
5616;SDS011;2830;50.656;7.568;2022-11-25T16:42:05;13.73;;;2.90;;
5616;SDS011;2830;50.656;7.568;2022-11-25T16:44:33;12.80;;;2.70;;
5616;SDS011;2830;50.656;7.568;2022-11-25T16:47:02;15.33;;;4.97;;
5616;SDS011;2830;50.656;7.568;2022-11-25T16:49:29;22.40;;;7.00;;
5616;SDS011;2830;50.656;7.568;2022-11-25T16:51:57;22.87;;;6.97;;
5616;SDS011;2830;50.656;7.568;2022-11-25T16:54:23;25.40;;;9.90;;
5616;SDS011;2830;50.656;7.568;2022-11-25T16:56:53;33.33;;;17.00;;
5616;SDS011;2830;50.656;7.568;2022-11-25T16:59:25;38.80;;;18.57;;
5616;SDS011;2830;50.656;7.568;2022-11-25T17:01:55;38.77;;;19.47;;
5616;SDS011;2830;50.656;7.568;2022-11-25T17:04:23;31.43;;;15.60;;
5616;SDS011;2830;50.656;7.568;2022-11-25T17:06:50;29.33;;;16.07;;
5616;SDS011;2830;50.656;7.568;2022-11-25T17:09:36;28.37;;;13.60;;
5616;SDS011;2830;50.656;7.568;2022-11-25T17:12:04;28.57;;;13.67;;
5616;SDS011;2830;50.656;7.568;2022-11-25T17:14:32;34.37;;;11.67;;
5616;SDS011;2830;50.656;7.568;2022-11-25T17:17:01;27.03;;;11.10;;
5616;SDS011;2830;50.656;7.568;2022-11-25T17:19:29;25.38;;;9.40;;
5616;SDS011;2830;50.656;7.568;2022-11-25T17:21:56;24.87;;;9.70;;
5616;SDS011;2830;50.656;7.568;2022-11-25T17:24:24;24.40;;;9.85;;
5616;SDS011;2830;50.656;7.568;2022-11-25T17:27:01;20.98;;;7.03;;
5616;SDS011;2830;50.656;7.568;2022-11-25T17:29:33;22.02;;;8.63;;
5616;SDS011;2830;50.656;7.568;2022-11-25T17:32:05;25.73;;;8.20;;
5616;SDS011;2830;50.656;7.568;2022-11-25T17:34:32;26.02;;;9.70;;